sensor_id;sensor_type;location;lat;lon;timestamp;P1;durP1;ratioP1;P2;durP2;ratioP2
65187;SDS011;51775;51.148;6.950;2022-08-01T00:02:06;1.25;;;0.98;;
65187;SDS011;51775;51.148;6.950;2022-08-01T00:04:31;1.20;;;1.00;;
65187;SDS011;51775;51.148;6.950;2022-08-01T00:06:57;1.08;;;0.90;;
65187;SDS011;51775;51.148;6.950;2022-08-01T00:09:22;1.27;;;1.00;;
65187;SDS011;51775;51.148;6.950;2022-08-01T00:11:47;1.20;;;1.00;;
65187;SDS011;51775;51.148;6.950;2022-08-01T00:14:13;1.20;;;1.00;;
65187;SDS011;51775;51.148;6.950;2022-08-01T00:16:38;1.70;;;1.08;;
65187;SDS011;51775;51.148;6.950;2022-08-01T00:19:03;1.45;;;1.02;;
65187;SDS011;51775;51.148;6.950;2022-08-01T00:21:29;1.67;;;1.10;;
65187;SDS011;51775;51.148;6.950;2022-08-01T00:23:54;1.25;;;1.00;;
65187;SDS011;51775;51.148;6.950;2022-08-01T00:26:19;1.35;;;1.00;;
65187;SDS011;51775;51.148;6.950;2022-08-01T00:28:45;1.00;;;0.80;;
65187;SDS011;51775;51.148;6.950;2022-08-01T00:31:10;1.20;;;0.90;;
65187;SDS011;51775;51.148;6.950;2022-08-01T00:33:35;1.25;;;1.00;;
65187;SDS011;51775;51.148;6.950;2022-08-01T00:36:01;1.55;;;0.95;;
65187;SDS011;51775;51.148;6.950;2022-08-01T00:38:26;1.15;;;0.90;;
65187;SDS011;51775;51.148;6.950;2022-08-01T00:40:51;1.30;;;1.00;;
65187;SDS011;51775;51.148;6.950;2022-08-01T00:43:16;1.45;;;0.98;;
65187;SDS011;51775;51.148;6.950;2022-08-01T00:45:42;1.20;;;0.90;;
65187;SDS011;51775;51.148;6.950;2022-08-01T00:48:07;1.15;;;0.90;;
65187;SDS011;51775;51.148;6.950;2022-08-01T00:50:33;1.20;;;0.90;;
65187;SDS011;51775;51.148;6.950;2022-08-01T00:52:59;1.30;;;1.00;;
65187;SDS011;51775;51.148;6.950;2022-08-01T00:55:26;0.93;;;0.80;;
65187;SDS011;51775;51.148;6.950;2022-08-01T00:57:52;1.42;;;0.93;;
65187;SDS011;51775;51.148;6.950;2022-08-01T01:00:19;1.33;;;0.90;;
65187;SDS011;51775;51.148;6.950;2022-08-01T01:02:44;1.02;;;0.80;;
65187;SDS011;51775;51.148;6.950;2022-08-01T01:05:10;1.20;;;0.90;;
65187;SDS011;51775;51.148;6.950;2022-08-01T01:07:49;1.02;;;0.88;;
65187;SDS011;51775;51.148;6.950;2022-08-01T01:13:23;1.30;;;1.00;;
65187;SDS011;51775;51.148;6.950;2022-08-01T01:15:57;0.88;;;0.80;;
65187;SDS011;51775;51.148;6.950;2022-08-01T01:18:27;1.10;;;0.75;;
65187;SDS011;51775;51.148;6.950;2022-08-01T01:21:03;1.30;;;0.90;;
65187;SDS011;51775;51.148;6.950;2022-08-01T01:29:48;1.27;;;0.90;;
65187;SDS011;51775;51.148;6.950;2022-08-01T01:32:18;1.27;;;0.98;;
65187;SDS011;51775;51.148;6.950;2022-08-01T01:34:54;1.30;;;0.90;;
65187;SDS011;51775;51.148;6.950;2022-08-01T01:37:21;1.25;;;0.82;;
65187;SDS011;51775;51.148;6.950;2022-08-01T01:39:50;1.10;;;0.80;;
65187;SDS011;51775;51.148;6.950;2022-08-01T01:42:17;1.10;;;0.90;;
65187;SDS011;51775;51.148;6.950;2022-08-01T01:44:44;0.95;;;0.80;;
65187;SDS011;51775;51.148;6.950;2022-08-01T01:47:11;0.95;;;0.75;;
65187;SDS011;51775;51.148;6.950;2022-08-01T01:49:38;1.13;;;0.90;;
65187;SDS011;51775;51.148;6.950;2022-08-01T01:52:06;1.10;;;0.80;;
65187;SDS011;51775;51.148;6.950;2022-08-01T01:54:35;1.65;;;0.95;;
65187;SDS011;51775;51.148;6.950;2022-08-01T01:57:04;1.60;;;0.90;;
65187;SDS011;51775;51.148;6.950;2022-08-01T01:59:31;1.10;;;0.85;;
65187;SDS011;51775;51.148;6.950;2022-08-01T02:01:59;1.20;;;0.90;;
65187;SDS011;51775;51.148;6.950;2022-08-01T02:04:27;1.15;;;0.90;;
65187;SDS011;51775;51.148;6.950;2022-08-01T02:06:53;1.20;;;0.85;;
65187;SDS011;51775;51.148;6.950;2022-08-01T02:09:20;1.30;;;1.00;;
65187;SDS011;51775;51.148;6.950;2022-08-01T02:11:49;1.50;;;1.00;;
65187;SDS011;51775;51.148;6.950;2022-08-01T02:14:16;1.42;;;1.05;;
65187;SDS011;51775;51.148;6.950;2022-08-01T02:16:44;1.15;;;0.90;;
65187;SDS011;51775;51.148;6.950;2022-08-01T02:19:12;2.00;;;0.95;;
65187;SDS011;51775;51.148;6.950;2022-08-01T02:21:40;1.40;;;1.00;;
65187;SDS011;51775;51.148;6.950;2022-08-01T02:24:13;1.20;;;0.98;;
65187;SDS011;51775;51.148;6.950;2022-08-01T02:26:42;1.17;;;0.90;;
65187;SDS011;51775;51.148;6.950;2022-08-01T02:29:16;1.15;;;0.90;;
65187;SDS011;51775;51.148;6.950;2022-08-01T02:31:47;1.30;;;1.00;;
65187;SDS011;51775;51.148;6.950;2022-08-01T02:34:14;1.20;;;0.95;;
65187;SDS011;51775;51.148;6.950;2022-08-01T02:36:43;1.10;;;0.90;;
65187;SDS011;51775;51.148;6.950;2022-08-01T02:39:11;1.17;;;0.98;;
65187;SDS011;51775;51.148;6.950;2022-08-01T02:41:43;1.13;;;0.93;;
65187;SDS011;51775;51.148;6.950;2022-08-01T02:44:14;1.50;;;1.10;;
65187;SDS011;51775;51.148;6.950;2022-08-01T02:46:50;1.20;;;0.90;;
65187;SDS011;51775;51.148;6.950;2022-08-01T02:49:19;1.40;;;1.00;;
65187;SDS011;51775;51.148;6.950;2022-08-01T02:51:46;1.50;;;1.00;;
65187;SDS011;51775;51.148;6.950;2022-08-01T02:54:13;0.90;;;0.80;;
65187;SDS011;51775;51.148;6.950;2022-08-01T02:56:42;1.48;;;1.00;;
65187;SDS011;51775;51.148;6.950;2022-08-01T02:59:13;1.33;;;1.00;;
65187;SDS011;51775;51.148;6.950;2022-08-01T03:01:41;1.08;;;0.90;;
65187;SDS011;51775;51.148;6.950;2022-08-01T03:04:09;1.48;;;1.00;;
65187;SDS011;51775;51.148;6.950;2022-08-01T03:06:36;1.30;;;1.08;;
65187;SDS011;51775;51.148;6.950;2022-08-01T03:09:03;1.00;;;0.90;;
65187;SDS011;51775;51.148;6.950;2022-08-01T03:11:31;1.40;;;1.10;;
65187;SDS011;51775;51.148;6.950;2022-08-01T03:14:00;1.50;;;1.00;;
65187;SDS011;51775;51.148;6.950;2022-08-01T03:16:29;1.70;;;1.10;;
65187;SDS011;51775;51.148;6.950;2022-08-01T03:18:56;1.02;;;0.88;;
65187;SDS011;51775;51.148;6.950;2022-08-01T03:21:23;1.15;;;0.90;;
65187;SDS011;51775;51.148;6.950;2022-08-01T03:23:49;1.40;;;1.00;;
65187;SDS011;51775;51.148;6.950;2022-08-01T03:26:16;1.50;;;1.10;;
65187;SDS011;51775;51.148;6.950;2022-08-01T03:28:43;1.30;;;1.00;;
65187;SDS011;51775;51.148;6.950;2022-08-01T03:31:11;1.92;;;1.00;;
65187;SDS011;51775;51.148;6.950;2022-08-01T03:33:38;1.30;;;1.00;;
65187;SDS011;51775;51.148;6.950;2022-08-01T03:36:04;1.42;;;1.00;;
65187;SDS011;51775;51.148;6.950;2022-08-01T03:38:33;1.00;;;0.90;;
65187;SDS011;51775;51.148;6.950;2022-08-01T03:41:04;1.13;;;0.90;;
65187;SDS011;51775;51.148;6.950;2022-08-01T03:43:46;1.38;;;1.00;;
65187;SDS011;51775;51.148;6.950;2022-08-01T03:46:21;1.20;;;1.00;;
65187;SDS011;51775;51.148;6.950;2022-08-01T03:48:58;1.50;;;1.10;;
65187;SDS011;51775;51.148;6.950;2022-08-01T03:51:28;1.25;;;1.00;;
65187;SDS011;51775;51.148;6.950;2022-08-01T03:53:55;1.20;;;0.90;;
65187;SDS011;51775;51.148;6.950;2022-08-01T03:56:22;1.35;;;1.00;;
65187;SDS011;51775;51.148;6.950;2022-08-01T03:58:48;1.10;;;1.00;;
65187;SDS011;51775;51.148;6.950;2022-08-01T04:01:15;3.10;;;1.10;;
65187;SDS011;51775;51.148;6.950;2022-08-01T04:03:42;1.55;;;1.08;;
65187;SDS011;51775;51.148;6.950;2022-08-01T04:06:08;1.58;;;1.10;;
65187;SDS011;51775;51.148;6.950;2022-08-01T04:08:34;1.10;;;0.90;;
65187;SDS011;51775;51.148;6.950;2022-08-01T04:11:03;1.50;;;1.10;;
65187;SDS011;51775;51.148;6.950;2022-08-01T04:13:29;1.55;;;1.10;;
65187;SDS011;51775;51.148;6.950;2022-08-01T04:15:55;1.38;;;0.90;;
65187;SDS011;51775;51.148;6.950;2022-08-01T04:18:21;1.42;;;1.10;;
65187;SDS011;51775;51.148;6.950;2022-08-01T04:20:46;1.48;;;1.10;;
65187;SDS011;51775;51.148;6.950;2022-08-01T04:23:12;1.33;;;1.10;;
65187;SDS011;51775;51.148;6.950;2022-08-01T04:25:40;1.70;;;1.13;;
65187;SDS011;51775;51.148;6.950;2022-08-01T04:28:07;1.45;;;1.00;;
65187;SDS011;51775;51.148;6.950;2022-08-01T04:30:36;1.13;;;1.00;;
65187;SDS011;51775;51.148;6.950;2022-08-01T04:33:04;1.75;;;1.20;;
65187;SDS011;51775;51.148;6.950;2022-08-01T04:35:31;1.50;;;1.10;;
65187;SDS011;51775;51.148;6.950;2022-08-01T04:37:57;2.55;;;1.20;;
65187;SDS011;51775;51.148;6.950;2022-08-01T04:40:24;1.85;;;1.30;;
65187;SDS011;51775;51.148;6.950;2022-08-01T04:42:50;1.50;;;1.10;;
65187;SDS011;51775;51.148;6.950;2022-08-01T04:45:15;1.50;;;1.10;;
65187;SDS011;51775;51.148;6.950;2022-08-01T04:47:40;1.50;;;1.20;;
65187;SDS011;51775;51.148;6.950;2022-08-01T04:50:07;1.80;;;1.23;;
65187;SDS011;51775;51.148;6.950;2022-08-01T04:52:34;2.08;;;1.20;;
65187;SDS011;51775;51.148;6.950;2022-08-01T04:55:00;1.70;;;1.23;;
65187;SDS011;51775;51.148;6.950;2022-08-01T04:57:26;1.75;;;1.20;;
65187;SDS011;51775;51.148;6.950;2022-08-01T04:59:52;1.85;;;1.25;;
65187;SDS011;51775;51.148;6.950;2022-08-01T05:02:17;1.85;;;1.20;;
65187;SDS011;51775;51.148;6.950;2022-08-01T05:04:44;2.00;;;1.30;;
65187;SDS011;51775;51.148;6.950;2022-08-01T05:07:10;1.80;;;1.30;;
65187;SDS011;51775;51.148;6.950;2022-08-01T05:09:37;1.80;;;1.30;;
65187;SDS011;51775;51.148;6.950;2022-08-01T05:12:04;1.70;;;1.30;;
65187;SDS011;51775;51.148;6.950;2022-08-01T05:14:30;1.63;;;1.30;;
65187;SDS011;51775;51.148;6.950;2022-08-01T05:16:56;2.03;;;1.50;;
65187;SDS011;51775;51.148;6.950;2022-08-01T05:19:21;1.83;;;1.02;;
65187;SDS011;51775;51.148;6.950;2022-08-01T05:21:47;1.95;;;1.40;;
65187;SDS011;51775;51.148;6.950;2022-08-01T05:24:12;3.95;;;1.45;;
65187;SDS011;51775;51.148;6.950;2022-08-01T05:26:37;2.33;;;1.60;;
65187;SDS011;51775;51.148;6.950;2022-08-01T05:29:03;1.92;;;1.55;;
65187;SDS011;51775;51.148;6.950;2022-08-01T05:31:28;2.97;;;1.50;;
65187;SDS011;51775;51.148;6.950;2022-08-01T05:33:53;1.90;;;1.50;;
65187;SDS011;51775;51.148;6.950;2022-08-01T05:36:19;2.20;;;1.50;;
65187;SDS011;51775;51.148;6.950;2022-08-01T05:38:44;2.00;;;1.40;;
65187;SDS011;51775;51.148;6.950;2022-08-01T05:41:10;2.40;;;1.60;;
65187;SDS011;51775;51.148;6.950;2022-08-01T05:43:36;2.10;;;1.58;;
65187;SDS011;51775;51.148;6.950;2022-08-01T05:46:01;2.22;;;1.55;;
65187;SDS011;51775;51.148;6.950;2022-08-01T05:48:27;2.42;;;1.75;;
65187;SDS011;51775;51.148;6.950;2022-08-01T05:50:52;2.00;;;1.58;;
65187;SDS011;51775;51.148;6.950;2022-08-01T05:53:18;2.20;;;1.58;;
65187;SDS011;51775;51.148;6.950;2022-08-01T05:55:44;2.20;;;1.50;;
65187;SDS011;51775;51.148;6.950;2022-08-01T05:58:09;2.10;;;1.60;;
65187;SDS011;51775;51.148;6.950;2022-08-01T06:00:34;2.00;;;1.42;;
65187;SDS011;51775;51.148;6.950;2022-08-01T06:03:01;2.50;;;1.58;;
65187;SDS011;51775;51.148;6.950;2022-08-01T06:05:26;2.10;;;1.40;;
65187;SDS011;51775;51.148;6.950;2022-08-01T06:07:51;2.05;;;1.48;;
65187;SDS011;51775;51.148;6.950;2022-08-01T06:10:17;2.35;;;1.60;;
65187;SDS011;51775;51.148;6.950;2022-08-01T06:12:42;3.05;;;1.73;;
65187;SDS011;51775;51.148;6.950;2022-08-01T06:15:07;2.20;;;1.60;;
65187;SDS011;51775;51.148;6.950;2022-08-01T06:17:34;2.50;;;1.75;;
65187;SDS011;51775;51.148;6.950;2022-08-01T06:19:59;2.15;;;1.60;;
65187;SDS011;51775;51.148;6.950;2022-08-01T06:22:24;2.40;;;1.73;;
65187;SDS011;51775;51.148;6.950;2022-08-01T06:24:50;2.00;;;1.50;;
65187;SDS011;51775;51.148;6.950;2022-08-01T06:27:15;2.10;;;1.50;;
65187;SDS011;51775;51.148;6.950;2022-08-01T06:29:40;2.10;;;1.60;;
65187;SDS011;51775;51.148;6.950;2022-08-01T06:32:06;3.38;;;1.73;;
65187;SDS011;51775;51.148;6.950;2022-08-01T06:34:32;2.10;;;1.60;;
65187;SDS011;51775;51.148;6.950;2022-08-01T06:36:58;2.47;;;1.63;;
65187;SDS011;51775;51.148;6.950;2022-08-01T06:39:23;2.60;;;1.77;;
65187;SDS011;51775;51.148;6.950;2022-08-01T06:41:49;3.40;;;1.92;;
65187;SDS011;51775;51.148;6.950;2022-08-01T06:44:14;2.17;;;1.63;;
65187;SDS011;51775;51.148;6.950;2022-08-01T06:46:39;2.38;;;1.80;;
65187;SDS011;51775;51.148;6.950;2022-08-01T06:49:05;2.58;;;1.85;;
65187;SDS011;51775;51.148;6.950;2022-08-01T06:51:30;2.90;;;2.00;;
65187;SDS011;51775;51.148;6.950;2022-08-01T06:53:55;3.00;;;2.03;;
65187;SDS011;51775;51.148;6.950;2022-08-01T06:56:21;2.95;;;2.00;;
65187;SDS011;51775;51.148;6.950;2022-08-01T06:58:46;2.83;;;1.92;;
65187;SDS011;51775;51.148;6.950;2022-08-01T07:01:12;3.40;;;2.15;;
65187;SDS011;51775;51.148;6.950;2022-08-01T07:03:37;3.13;;;2.10;;
65187;SDS011;51775;51.148;6.950;2022-08-01T07:06:03;3.45;;;2.00;;
65187;SDS011;51775;51.148;6.950;2022-08-01T07:08:28;3.08;;;2.10;;
65187;SDS011;51775;51.148;6.950;2022-08-01T07:10:53;3.15;;;2.22;;
65187;SDS011;51775;51.148;6.950;2022-08-01T07:13:19;3.60;;;2.15;;
65187;SDS011;51775;51.148;6.950;2022-08-01T07:15:44;3.03;;;2.17;;
65187;SDS011;51775;51.148;6.950;2022-08-01T07:18:09;3.60;;;2.20;;
65187;SDS011;51775;51.148;6.950;2022-08-01T07:20:35;3.15;;;2.17;;
65187;SDS011;51775;51.148;6.950;2022-08-01T07:23:02;3.83;;;2.13;;
65187;SDS011;51775;51.148;6.950;2022-08-01T07:25:27;3.13;;;2.13;;
65187;SDS011;51775;51.148;6.950;2022-08-01T07:27:52;3.10;;;2.05;;
65187;SDS011;51775;51.148;6.950;2022-08-01T07:30:18;2.90;;;2.10;;
65187;SDS011;51775;51.148;6.950;2022-08-01T07:32:43;2.72;;;2.10;;
65187;SDS011;51775;51.148;6.950;2022-08-01T07:35:08;3.30;;;1.98;;
65187;SDS011;51775;51.148;6.950;2022-08-01T07:37:34;3.38;;;1.92;;
65187;SDS011;51775;51.148;6.950;2022-08-01T07:39:59;2.88;;;2.10;;
65187;SDS011;51775;51.148;6.950;2022-08-01T07:42:25;2.90;;;2.25;;
65187;SDS011;51775;51.148;6.950;2022-08-01T07:44:50;3.42;;;2.17;;
65187;SDS011;51775;51.148;6.950;2022-08-01T07:47:16;2.65;;;1.80;;
65187;SDS011;51775;51.148;6.950;2022-08-01T07:49:41;2.80;;;2.03;;
65187;SDS011;51775;51.148;6.950;2022-08-01T07:52:07;2.92;;;2.00;;
65187;SDS011;51775;51.148;6.950;2022-08-01T07:54:32;2.90;;;2.10;;
65187;SDS011;51775;51.148;6.950;2022-08-01T07:56:58;2.92;;;2.15;;
65187;SDS011;51775;51.148;6.950;2022-08-01T07:59:23;2.80;;;1.90;;
65187;SDS011;51775;51.148;6.950;2022-08-01T08:01:49;3.05;;;2.00;;
65187;SDS011;51775;51.148;6.950;2022-08-01T08:04:15;2.70;;;2.00;;
65187;SDS011;51775;51.148;6.950;2022-08-01T08:06:40;3.63;;;1.95;;
65187;SDS011;51775;51.148;6.950;2022-08-01T08:09:06;3.20;;;2.00;;
65187;SDS011;51775;51.148;6.950;2022-08-01T08:11:31;2.50;;;1.90;;
65187;SDS011;51775;51.148;6.950;2022-08-01T08:13:58;2.42;;;1.80;;
65187;SDS011;51775;51.148;6.950;2022-08-01T08:16:24;4.88;;;1.85;;
65187;SDS011;51775;51.148;6.950;2022-08-01T08:18:49;2.50;;;1.90;;
65187;SDS011;51775;51.148;6.950;2022-08-01T08:21:14;2.38;;;1.65;;
65187;SDS011;51775;51.148;6.950;2022-08-01T08:23:39;2.92;;;1.80;;
65187;SDS011;51775;51.148;6.950;2022-08-01T08:26:07;2.63;;;1.83;;
65187;SDS011;51775;51.148;6.950;2022-08-01T08:28:33;2.42;;;1.83;;
65187;SDS011;51775;51.148;6.950;2022-08-01T08:30:58;2.53;;;1.80;;
65187;SDS011;51775;51.148;6.950;2022-08-01T08:33:23;2.95;;;1.65;;
65187;SDS011;51775;51.148;6.950;2022-08-01T08:35:49;3.30;;;1.90;;
65187;SDS011;51775;51.148;6.950;2022-08-01T08:38:15;2.33;;;1.55;;
65187;SDS011;51775;51.148;6.950;2022-08-01T08:40:40;2.45;;;1.67;;
65187;SDS011;51775;51.148;6.950;2022-08-01T08:43:06;2.00;;;1.50;;
65187;SDS011;51775;51.148;6.950;2022-08-01T08:45:32;2.60;;;1.58;;
65187;SDS011;51775;51.148;6.950;2022-08-01T08:48:00;3.15;;;1.60;;
65187;SDS011;51775;51.148;6.950;2022-08-01T08:50:26;2.33;;;1.40;;
65187;SDS011;51775;51.148;6.950;2022-08-01T08:52:52;2.22;;;1.65;;
65187;SDS011;51775;51.148;6.950;2022-08-01T08:55:19;2.00;;;1.50;;
65187;SDS011;51775;51.148;6.950;2022-08-01T08:57:45;2.17;;;1.50;;
65187;SDS011;51775;51.148;6.950;2022-08-01T09:00:10;2.10;;;1.50;;
65187;SDS011;51775;51.148;6.950;2022-08-01T09:02:44;2.30;;;1.50;;
65187;SDS011;51775;51.148;6.950;2022-08-01T09:05:10;2.00;;;1.50;;
65187;SDS011;51775;51.148;6.950;2022-08-01T09:07:36;3.13;;;1.55;;
65187;SDS011;51775;51.148;6.950;2022-08-01T09:10:02;2.40;;;1.60;;
65187;SDS011;51775;51.148;6.950;2022-08-01T09:12:28;2.90;;;1.50;;
65187;SDS011;51775;51.148;6.950;2022-08-01T09:14:53;2.90;;;1.52;;
65187;SDS011;51775;51.148;6.950;2022-08-01T09:17:19;1.98;;;1.40;;
65187;SDS011;51775;51.148;6.950;2022-08-01T09:19:50;2.20;;;1.63;;
65187;SDS011;51775;51.148;6.950;2022-08-01T09:22:18;3.58;;;1.70;;
65187;SDS011;51775;51.148;6.950;2022-08-01T09:25:00;3.85;;;1.70;;
65187;SDS011;51775;51.148;6.950;2022-08-01T09:27:30;3.38;;;1.60;;
65187;SDS011;51775;51.148;6.950;2022-08-01T09:30:05;2.63;;;1.65;;
65187;SDS011;51775;51.148;6.950;2022-08-01T09:33:01;2.65;;;1.40;;
65187;SDS011;51775;51.148;6.950;2022-08-01T09:35:29;2.35;;;1.50;;
65187;SDS011;51775;51.148;6.950;2022-08-01T09:38:11;3.05;;;1.63;;
65187;SDS011;51775;51.148;6.950;2022-08-01T09:40:48;2.88;;;1.65;;
65187;SDS011;51775;51.148;6.950;2022-08-01T09:43:20;3.65;;;1.70;;
65187;SDS011;51775;51.148;6.950;2022-08-01T09:45:47;2.72;;;1.65;;
65187;SDS011;51775;51.148;6.950;2022-08-01T09:48:12;3.10;;;1.60;;
65187;SDS011;51775;51.148;6.950;2022-08-01T09:50:42;3.35;;;1.60;;
65187;SDS011;51775;51.148;6.950;2022-08-01T09:53:12;5.60;;;1.60;;
65187;SDS011;51775;51.148;6.950;2022-08-01T09:55:38;2.70;;;1.55;;
65187;SDS011;51775;51.148;6.950;2022-08-01T09:58:04;4.05;;;1.55;;
65187;SDS011;51775;51.148;6.950;2022-08-01T10:00:31;2.15;;;1.40;;
65187;SDS011;51775;51.148;6.950;2022-08-01T10:02:57;3.90;;;1.70;;
65187;SDS011;51775;51.148;6.950;2022-08-01T10:05:30;2.85;;;1.65;;
65187;SDS011;51775;51.148;6.950;2022-08-01T10:08:01;4.15;;;1.90;;
65187;SDS011;51775;51.148;6.950;2022-08-01T10:10:29;3.60;;;1.40;;
65187;SDS011;51775;51.148;6.950;2022-08-01T10:12:56;3.33;;;1.52;;
65187;SDS011;51775;51.148;6.950;2022-08-01T10:15:24;4.90;;;1.60;;
65187;SDS011;51775;51.148;6.950;2022-08-01T10:17:54;3.05;;;1.60;;
65187;SDS011;51775;51.148;6.950;2022-08-01T10:20:22;3.28;;;1.58;;
65187;SDS011;51775;51.148;6.950;2022-08-01T10:22:53;3.03;;;1.60;;
65187;SDS011;51775;51.148;6.950;2022-08-01T10:25:19;3.45;;;1.45;;
65187;SDS011;51775;51.148;6.950;2022-08-01T10:27:52;4.78;;;1.45;;
65187;SDS011;51775;51.148;6.950;2022-08-01T10:30:20;3.67;;;1.60;;
65187;SDS011;51775;51.148;6.950;2022-08-01T10:32:59;2.55;;;1.60;;
65187;SDS011;51775;51.148;6.950;2022-08-01T10:35:29;2.20;;;1.50;;
65187;SDS011;51775;51.148;6.950;2022-08-01T10:40:55;2.67;;;1.60;;
65187;SDS011;51775;51.148;6.950;2022-08-01T10:43:24;4.10;;;1.50;;
65187;SDS011;51775;51.148;6.950;2022-08-01T10:45:49;2.65;;;1.50;;
65187;SDS011;51775;51.148;6.950;2022-08-01T10:48:18;2.20;;;1.42;;
65187;SDS011;51775;51.148;6.950;2022-08-01T10:51:11;2.55;;;1.52;;
65187;SDS011;51775;51.148;6.950;2022-08-01T10:53:37;2.00;;;1.40;;
65187;SDS011;51775;51.148;6.950;2022-08-01T10:56:11;2.50;;;1.40;;
65187;SDS011;51775;51.148;6.950;2022-08-01T10:58:38;3.25;;;1.45;;
65187;SDS011;51775;51.148;6.950;2022-08-01T11:03:57;3.33;;;1.80;;
65187;SDS011;51775;51.148;6.950;2022-08-01T11:09:05;2.45;;;1.60;;
65187;SDS011;51775;51.148;6.950;2022-08-01T11:14:27;3.53;;;1.55;;
65187;SDS011;51775;51.148;6.950;2022-08-01T11:16:52;3.17;;;1.45;;
65187;SDS011;51775;51.148;6.950;2022-08-01T11:19:18;2.58;;;1.65;;
65187;SDS011;51775;51.148;6.950;2022-08-01T11:27:32;2.53;;;1.40;;
65187;SDS011;51775;51.148;6.950;2022-08-01T11:32:51;2.33;;;1.40;;
65187;SDS011;51775;51.148;6.950;2022-08-01T11:35:20;3.17;;;1.90;;
65187;SDS011;51775;51.148;6.950;2022-08-01T11:37:49;2.58;;;1.58;;
65187;SDS011;51775;51.148;6.950;2022-08-01T11:40:16;2.10;;;1.40;;
65187;SDS011;51775;51.148;6.950;2022-08-01T11:42:43;2.45;;;1.60;;
65187;SDS011;51775;51.148;6.950;2022-08-01T11:45:09;4.40;;;1.63;;
65187;SDS011;51775;51.148;6.950;2022-08-01T11:52:57;4.43;;;1.63;;
65187;SDS011;51775;51.148;6.950;2022-08-01T11:55:32;2.53;;;1.70;;
65187;SDS011;51775;51.148;6.950;2022-08-01T11:58:02;2.45;;;1.63;;
65187;SDS011;51775;51.148;6.950;2022-08-01T12:00:32;3.03;;;1.60;;
65187;SDS011;51775;51.148;6.950;2022-08-01T12:03:02;2.17;;;1.55;;
65187;SDS011;51775;51.148;6.950;2022-08-01T12:05:30;2.30;;;1.60;;
65187;SDS011;51775;51.148;6.950;2022-08-01T12:07:57;2.40;;;1.40;;
65187;SDS011;51775;51.148;6.950;2022-08-01T12:10:24;2.20;;;1.38;;
65187;SDS011;51775;51.148;6.950;2022-08-01T12:12:55;2.33;;;1.52;;
65187;SDS011;51775;51.148;6.950;2022-08-01T12:15:27;2.08;;;1.40;;
65187;SDS011;51775;51.148;6.950;2022-08-01T12:17:56;2.40;;;1.40;;
65187;SDS011;51775;51.148;6.950;2022-08-01T12:20:23;2.88;;;1.48;;
65187;SDS011;51775;51.148;6.950;2022-08-01T12:22:56;2.97;;;1.40;;
65187;SDS011;51775;51.148;6.950;2022-08-01T12:25:24;1.92;;;1.30;;
65187;SDS011;51775;51.148;6.950;2022-08-01T12:27:49;3.55;;;1.38;;
65187;SDS011;51775;51.148;6.950;2022-08-01T12:30:17;2.03;;;1.55;;
65187;SDS011;51775;51.148;6.950;2022-08-01T12:32:44;2.35;;;1.38;;
65187;SDS011;51775;51.148;6.950;2022-08-01T12:35:13;1.98;;;1.58;;
65187;SDS011;51775;51.148;6.950;2022-08-01T12:40:22;3.22;;;1.50;;
65187;SDS011;51775;51.148;6.950;2022-08-01T12:42:50;2.20;;;1.50;;
65187;SDS011;51775;51.148;6.950;2022-08-01T12:45:18;2.10;;;1.50;;
65187;SDS011;51775;51.148;6.950;2022-08-01T12:47:45;2.58;;;1.48;;
65187;SDS011;51775;51.148;6.950;2022-08-01T12:50:15;2.50;;;1.40;;
65187;SDS011;51775;51.148;6.950;2022-08-01T12:52:41;2.30;;;1.50;;
65187;SDS011;51775;51.148;6.950;2022-08-01T12:55:17;2.63;;;1.70;;
65187;SDS011;51775;51.148;6.950;2022-08-01T12:57:44;1.73;;;1.23;;
65187;SDS011;51775;51.148;6.950;2022-08-01T13:00:15;2.63;;;1.55;;
65187;SDS011;51775;51.148;6.950;2022-08-01T13:02:47;2.10;;;1.40;;
65187;SDS011;51775;51.148;6.950;2022-08-01T13:05:13;1.85;;;1.40;;
65187;SDS011;51775;51.148;6.950;2022-08-01T13:07:40;2.65;;;1.45;;
65187;SDS011;51775;51.148;6.950;2022-08-01T13:10:09;2.65;;;1.42;;
65187;SDS011;51775;51.148;6.950;2022-08-01T13:12:35;2.63;;;1.50;;
65187;SDS011;51775;51.148;6.950;2022-08-01T13:15:20;1.80;;;1.35;;
65187;SDS011;51775;51.148;6.950;2022-08-01T13:17:47;3.00;;;1.40;;
65187;SDS011;51775;51.148;6.950;2022-08-01T13:20:30;2.53;;;1.45;;
65187;SDS011;51775;51.148;6.950;2022-08-01T13:23:09;2.47;;;1.60;;
65187;SDS011;51775;51.148;6.950;2022-08-01T13:25:45;1.95;;;1.30;;
65187;SDS011;51775;51.148;6.950;2022-08-01T13:28:16;5.38;;;1.90;;
65187;SDS011;51775;51.148;6.950;2022-08-01T13:30:59;2.33;;;1.42;;
65187;SDS011;51775;51.148;6.950;2022-08-01T13:33:42;2.00;;;1.38;;
65187;SDS011;51775;51.148;6.950;2022-08-01T13:36:09;2.42;;;1.50;;
65187;SDS011;51775;51.148;6.950;2022-08-01T13:38:34;2.08;;;1.30;;
65187;SDS011;51775;51.148;6.950;2022-08-01T13:41:00;1.80;;;1.30;;
65187;SDS011;51775;51.148;6.950;2022-08-01T13:43:25;1.77;;;1.30;;
65187;SDS011;51775;51.148;6.950;2022-08-01T13:45:51;2.00;;;1.30;;
65187;SDS011;51775;51.148;6.950;2022-08-01T13:48:16;1.80;;;1.27;;
65187;SDS011;51775;51.148;6.950;2022-08-01T13:50:41;1.65;;;1.30;;
65187;SDS011;51775;51.148;6.950;2022-08-01T13:53:07;2.20;;;1.40;;
65187;SDS011;51775;51.148;6.950;2022-08-01T13:55:32;1.83;;;1.30;;
65187;SDS011;51775;51.148;6.950;2022-08-01T13:57:57;2.00;;;1.40;;
65187;SDS011;51775;51.148;6.950;2022-08-01T14:00:23;2.58;;;1.50;;
65187;SDS011;51775;51.148;6.950;2022-08-01T14:02:48;1.98;;;1.40;;
65187;SDS011;51775;51.148;6.950;2022-08-01T14:05:13;2.10;;;1.40;;
65187;SDS011;51775;51.148;6.950;2022-08-01T14:07:39;2.33;;;1.20;;
65187;SDS011;51775;51.148;6.950;2022-08-01T14:10:04;3.17;;;1.40;;
65187;SDS011;51775;51.148;6.950;2022-08-01T14:12:30;2.00;;;1.40;;
65187;SDS011;51775;51.148;6.950;2022-08-01T14:14:55;2.65;;;1.50;;
65187;SDS011;51775;51.148;6.950;2022-08-01T14:17:20;2.00;;;1.30;;
65187;SDS011;51775;51.148;6.950;2022-08-01T14:19:45;2.20;;;1.60;;
65187;SDS011;51775;51.148;6.950;2022-08-01T14:22:12;1.80;;;1.23;;
65187;SDS011;51775;51.148;6.950;2022-08-01T14:24:37;2.28;;;1.48;;
65187;SDS011;51775;51.148;6.950;2022-08-01T14:27:02;2.10;;;1.40;;
65187;SDS011;51775;51.148;6.950;2022-08-01T14:29:28;1.70;;;1.20;;
65187;SDS011;51775;51.148;6.950;2022-08-01T14:31:53;3.65;;;1.40;;
65187;SDS011;51775;51.148;6.950;2022-08-01T14:34:18;2.78;;;1.30;;
65187;SDS011;51775;51.148;6.950;2022-08-01T14:36:44;2.30;;;1.30;;
65187;SDS011;51775;51.148;6.950;2022-08-01T14:39:09;2.30;;;1.40;;
65187;SDS011;51775;51.148;6.950;2022-08-01T14:41:36;2.22;;;1.20;;
65187;SDS011;51775;51.148;6.950;2022-08-01T14:44:02;3.08;;;1.40;;
65187;SDS011;51775;51.148;6.950;2022-08-01T14:46:27;2.28;;;1.40;;
65187;SDS011;51775;51.148;6.950;2022-08-01T14:48:53;3.88;;;1.13;;
65187;SDS011;51775;51.148;6.950;2022-08-01T14:51:19;2.15;;;1.40;;
65187;SDS011;51775;51.148;6.950;2022-08-01T14:53:44;2.30;;;1.50;;
65187;SDS011;51775;51.148;6.950;2022-08-01T14:56:09;1.80;;;1.10;;
65187;SDS011;51775;51.148;6.950;2022-08-01T14:58:36;3.20;;;1.40;;
65187;SDS011;51775;51.148;6.950;2022-08-01T15:01:02;1.83;;;1.27;;
65187;SDS011;51775;51.148;6.950;2022-08-01T15:03:28;2.25;;;1.25;;
65187;SDS011;51775;51.148;6.950;2022-08-01T15:05:53;2.22;;;1.40;;
65187;SDS011;51775;51.148;6.950;2022-08-01T15:08:18;2.80;;;1.38;;
65187;SDS011;51775;51.148;6.950;2022-08-01T15:10:44;2.05;;;1.40;;
65187;SDS011;51775;51.148;6.950;2022-08-01T15:13:09;2.85;;;1.20;;
65187;SDS011;51775;51.148;6.950;2022-08-01T15:15:34;2.58;;;1.40;;
65187;SDS011;51775;51.148;6.950;2022-08-01T15:18:00;2.10;;;1.40;;
65187;SDS011;51775;51.148;6.950;2022-08-01T15:20:25;2.05;;;1.30;;
65187;SDS011;51775;51.148;6.950;2022-08-01T15:22:51;2.50;;;1.20;;
65187;SDS011;51775;51.148;6.950;2022-08-01T15:25:17;1.73;;;1.25;;
65187;SDS011;51775;51.148;6.950;2022-08-01T15:27:42;2.22;;;1.40;;